createdAt,value
2017-08-27T00:01:45.810Z,73.50
2017-08-27T00:04:15.999Z,73.30
2017-08-27T00:06:59.572Z,73.40
2017-08-27T00:09:29.768Z,73.30
2017-08-27T00:12:00.476Z,73.50
2017-08-27T00:14:30.969Z,73.40
2017-08-27T00:17:01.426Z,73.90
2017-08-27T00:19:31.592Z,73.60
2017-08-27T00:22:01.755Z,74.00
2017-08-27T00:24:31.840Z,74.10
2017-08-27T00:27:02.354Z,73.60
2017-08-27T00:29:32.754Z,73.90
2017-08-27T00:32:03.013Z,73.80
2017-08-27T00:34:33.160Z,73.70
2017-08-27T00:37:04.445Z,74.00
2017-08-27T00:39:34.717Z,74.00
2017-08-27T00:42:04.968Z,73.90
2017-08-27T00:44:35.419Z,74.20
2017-08-27T00:47:05.581Z,73.90
2017-08-27T00:49:35.792Z,73.90
2017-08-27T00:52:06.009Z,73.90
2017-08-27T00:54:36.211Z,73.80
2017-08-27T00:57:10.852Z,74.20
2017-08-27T00:59:41.848Z,74.40
2017-08-27T01:02:12.086Z,74.50
2017-08-27T01:04:42.305Z,75.00
2017-08-27T01:07:12.925Z,75.10
2017-08-27T01:09:44.301Z,75.50
2017-08-27T01:12:14.460Z,75.30
2017-08-27T01:14:44.610Z,75.20
2017-08-27T01:17:14.884Z,75.00
2017-08-27T01:19:45.074Z,75.10
2017-08-27T01:22:15.498Z,75.10
2017-08-27T01:24:46.441Z,74.70
2017-08-27T01:27:26.837Z,74.80
2017-08-27T01:29:57.004Z,74.80
2017-08-27T01:32:27.526Z,74.50
2017-08-27T01:34:57.677Z,74.30
2017-08-27T01:37:41.452Z,74.20
2017-08-27T01:40:11.627Z,74.10
2017-08-27T01:42:41.890Z,74.60
2017-08-27T01:45:20.002Z,74.00
2017-08-27T01:47:50.129Z,74.20
2017-08-27T01:50:20.453Z,74.70
2017-08-27T01:52:50.813Z,74.30
2017-08-27T01:55:20.971Z,73.80
2017-08-27T01:57:51.678Z,73.90
2017-08-27T02:00:21.832Z,73.80
2017-08-27T02:02:52.260Z,74.10
2017-08-27T02:05:22.407Z,73.90
2017-08-27T02:07:52.550Z,73.80
2017-08-27T02:10:23.466Z,74.40
2017-08-27T02:12:59.625Z,75.00
2017-08-27T02:15:29.958Z,75.30
2017-08-27T02:18:00.081Z,75.40
2017-08-27T02:20:38.241Z,76.00
2017-08-27T02:23:08.450Z,76.10
2017-08-27T02:25:38.578Z,77.50
2017-08-27T02:28:09.150Z,77.80
2017-08-27T02:30:39.300Z,78.00
2017-08-27T02:33:09.498Z,78.40
2017-08-27T02:35:40.439Z,78.00
2017-08-27T02:38:12.054Z,78.20
2017-08-27T02:40:42.716Z,78.40
2017-08-27T02:43:13.115Z,78.20
2017-08-27T02:45:43.389Z,78.00
2017-08-27T02:48:13.551Z,78.50
2017-08-27T02:50:43.781Z,77.90
2017-08-27T02:53:23.309Z,77.90
2017-08-27T02:55:54.199Z,78.60
2017-08-27T02:58:24.442Z,78.50
2017-08-27T03:00:54.661Z,77.70
2017-08-27T03:03:26.201Z,77.20
2017-08-27T03:05:56.404Z,77.20
2017-08-27T03:08:26.614Z,77.00
2017-08-27T03:10:57.057Z,78.60
2017-08-27T03:13:27.237Z,77.80
2017-08-27T03:15:59.024Z,78.10
2017-08-27T03:18:29.231Z,78.00
2017-08-27T03:20:59.410Z,78.40
2017-08-27T03:23:29.578Z,80.00
2017-08-27T03:26:14.113Z,78.60
2017-08-27T03:28:44.257Z,78.40
2017-08-27T03:31:14.404Z,78.00
2017-08-27T03:33:46.430Z,78.20
2017-08-27T03:36:17.532Z,79.20
2017-08-27T03:38:47.897Z,79.20
2017-08-27T03:41:18.118Z,78.20
2017-08-27T03:43:51.378Z,77.70
2017-08-27T03:46:21.548Z,77.70
2017-08-27T03:48:51.686Z,78.60
2017-08-27T03:51:22.024Z,78.00
2017-08-27T03:53:52.262Z,77.80
2017-08-27T03:56:22.765Z,77.90
2017-08-27T03:58:52.945Z,77.60
2017-08-27T04:01:23.961Z,77.80
2017-08-27T04:03:54.686Z,77.70
2017-08-27T04:06:25.014Z,77.60
2017-08-27T04:08:55.281Z,77.70
2017-08-27T04:11:25.769Z,77.60
2017-08-27T04:13:56.213Z,79.10
2017-08-27T04:16:32.774Z,78.20
2017-08-27T04:19:02.943Z,78.70
2017-08-27T04:21:33.657Z,78.20
2017-08-27T04:24:04.183Z,78.40
2017-08-27T04:26:35.799Z,80.00
2017-08-27T04:29:06.004Z,78.80
2017-08-27T04:31:36.353Z,79.70
2017-08-27T04:34:06.921Z,79.80
2017-08-27T04:36:37.952Z,81.10
2017-08-27T04:39:08.180Z,81.20
2017-08-27T04:41:38.485Z,80.80
2017-08-27T04:44:08.714Z,80.40
2017-08-27T04:46:43.642Z,80.70
2017-08-27T04:49:13.770Z,79.70
2017-08-27T04:51:43.937Z,79.60
2017-08-27T04:54:28.347Z,79.60
2017-08-27T04:56:58.474Z,79.50
2017-08-27T04:59:28.650Z,80.30
2017-08-27T05:01:59.090Z,80.60
2017-08-27T05:04:29.276Z,81.00
2017-08-27T05:06:59.746Z,82.30
2017-08-27T05:09:29.890Z,84.40
2017-08-27T05:12:00.057Z,83.50
2017-08-27T05:14:30.513Z,83.20
2017-08-27T05:17:00.699Z,84.60
2017-08-27T05:19:30.821Z,85.00
2017-08-27T05:22:01.516Z,83.90
2017-08-27T05:24:31.689Z,84.30
2017-08-27T05:27:01.881Z,84.40
2017-08-27T05:29:32.261Z,84.50
2017-08-27T05:32:02.466Z,85.10
2017-08-27T05:34:39.083Z,85.40
2017-08-27T05:37:09.254Z,84.80
2017-08-27T05:39:39.409Z,84.60
2017-08-27T05:42:09.677Z,84.60
2017-08-27T05:44:39.967Z,84.40
2017-08-27T05:47:10.461Z,84.20
2017-08-27T05:49:40.641Z,85.10
2017-08-27T05:52:14.194Z,84.10
2017-08-27T05:54:44.372Z,84.10
2017-08-27T05:57:14.509Z,83.90
2017-08-27T05:59:44.978Z,84.10
2017-08-27T06:02:15.163Z,83.50
2017-08-27T06:04:51.199Z,84.20
2017-08-27T06:07:21.690Z,83.30
2017-08-27T06:09:51.883Z,83.20
2017-08-27T06:12:22.254Z,83.60
2017-08-27T06:15:00.135Z,84.30
2017-08-27T06:17:30.420Z,84.00
2017-08-27T06:20:00.641Z,83.80
2017-08-27T06:22:36.766Z,83.20
2017-08-27T06:25:08.313Z,82.40
2017-08-27T06:27:38.629Z,82.70
2017-08-27T06:30:08.842Z,82.40
2017-08-27T06:32:39.252Z,81.60
2017-08-27T06:35:10.075Z,82.20
2017-08-27T06:37:40.701Z,82.80
2017-08-27T06:40:11.272Z,82.30
2017-08-27T06:42:41.786Z,83.50
2017-08-27T06:45:24.701Z,81.30
2017-08-27T06:47:54.932Z,80.00
2017-08-27T06:50:25.265Z,80.30
2017-08-27T06:53:09.369Z,78.80
2017-08-27T06:55:39.837Z,79.80
2017-08-27T06:58:10.201Z,77.50
2017-08-27T07:00:40.556Z,77.30
2017-08-27T07:03:10.904Z,77.60
2017-08-27T07:05:46.276Z,77.10
2017-08-27T07:10:51.977Z,76.30
2017-08-27T07:13:22.956Z,74.00
2017-08-27T07:15:53.689Z,73.90
2017-08-27T07:18:24.494Z,72.40
2017-08-27T07:20:55.162Z,71.50
2017-08-27T07:23:26.307Z,70.60
2017-08-27T07:25:56.863Z,69.20
2017-08-27T07:28:27.730Z,69.30
2017-08-27T07:30:59.131Z,68.40
2017-08-27T07:33:29.463Z,68.30
2017-08-27T07:36:00.163Z,65.90
2017-08-27T07:38:30.982Z,67.00
2017-08-27T07:41:01.627Z,65.30
2017-08-27T07:43:31.903Z,65.10
2017-08-27T07:46:03.196Z,62.90
2017-08-27T07:48:33.987Z,62.80
2017-08-27T07:51:04.510Z,62.60
2017-08-27T07:53:35.272Z,61.70
2017-08-27T07:56:06.384Z,61.70
2017-08-27T07:58:37.203Z,61.00
2017-08-27T08:01:07.778Z,61.30
2017-08-27T08:03:38.909Z,59.80
2017-08-27T08:06:09.892Z,59.10
2017-08-27T08:08:40.267Z,57.40
2017-08-27T08:11:11.187Z,56.90
2017-08-27T08:13:41.538Z,58.60
2017-08-27T08:16:12.379Z,57.50
2017-08-27T08:18:43.631Z,55.80
2017-08-27T08:21:14.734Z,55.60
2017-08-27T08:23:45.106Z,55.70
2017-08-27T08:26:15.588Z,56.90
2017-08-27T08:28:46.425Z,55.50
2017-08-27T08:31:16.885Z,54.90
2017-08-27T08:33:47.710Z,56.20
2017-08-27T08:36:18.118Z,55.50
2017-08-27T08:38:48.702Z,54.10
2017-08-27T08:41:19.674Z,52.30
2017-08-27T08:43:50.030Z,55.40
2017-08-27T08:46:20.495Z,54.80
2017-08-27T08:48:51.285Z,55.90
2017-08-27T08:51:22.003Z,54.80
2017-08-27T08:53:52.615Z,54.10
2017-08-27T08:56:22.943Z,54.80
2017-08-27T08:58:53.336Z,52.00
2017-08-27T09:01:23.808Z,54.50
2017-08-27T09:03:54.424Z,54.40
2017-08-27T09:06:25.119Z,53.50
2017-08-27T09:08:55.924Z,50.10
2017-08-27T09:11:26.611Z,52.70
2017-08-27T09:13:57.472Z,50.50
2017-08-27T09:16:28.344Z,51.10
2017-08-27T09:18:59.333Z,50.60
2017-08-27T09:21:29.735Z,46.50
2017-08-27T09:24:00.681Z,46.80
2017-08-27T09:26:31.681Z,48.80
2017-08-27T09:29:02.139Z,50.30
2017-08-27T09:31:33.279Z,48.00
2017-08-27T09:34:04.057Z,49.10
2017-08-27T09:36:34.380Z,50.20
2017-08-27T09:39:05.347Z,45.50
2017-08-27T09:41:36.108Z,47.50
2017-08-27T09:44:06.558Z,45.80
2017-08-27T09:46:38.695Z,43.00
2017-08-27T09:49:09.308Z,43.00
2017-08-27T09:51:39.758Z,45.90
2017-08-27T09:54:10.701Z,42.80
2017-08-27T09:56:41.637Z,41.90
2017-08-27T09:59:11.963Z,42.90
2017-08-27T10:01:43.140Z,42.10
2017-08-27T10:04:13.551Z,38.90
2017-08-27T10:06:44.346Z,39.40
2017-08-27T10:09:14.740Z,40.30
2017-08-27T10:11:46.039Z,39.90
2017-08-27T10:14:17.159Z,39.10
2017-08-27T10:16:47.818Z,39.10
2017-08-27T10:19:18.256Z,40.60
2017-08-27T10:21:49.061Z,41.40
2017-08-27T10:24:20.334Z,40.30
2017-08-27T10:26:50.915Z,41.40
2017-08-27T10:29:21.775Z,42.20
2017-08-27T10:31:52.661Z,39.10
2017-08-27T10:34:23.193Z,39.70
2017-08-27T10:36:54.506Z,40.30
2017-08-27T10:39:24.971Z,40.30
2017-08-27T10:41:56.546Z,40.00
2017-08-27T10:44:27.538Z,39.20
2017-08-27T10:46:58.692Z,38.30
2017-08-27T10:49:29.808Z,39.20
2017-08-27T10:52:00.415Z,38.70
2017-08-27T10:54:31.467Z,38.10
2017-08-27T10:57:02.761Z,41.70
2017-08-27T10:59:33.242Z,41.30
2017-08-27T11:02:03.652Z,41.00
2017-08-27T11:04:34.052Z,42.30
2017-08-27T11:07:05.128Z,43.60
2017-08-27T11:09:37.151Z,43.70
2017-08-27T11:12:07.634Z,41.10
2017-08-27T11:14:38.135Z,40.10
2017-08-27T11:17:09.153Z,40.10
2017-08-27T11:19:39.507Z,40.10
2017-08-27T11:22:10.746Z,41.00
2017-08-27T11:24:41.445Z,40.70
2017-08-27T11:27:12.032Z,39.20
2017-08-27T11:29:42.727Z,38.30
2017-08-27T11:32:13.481Z,36.80
2017-08-27T11:34:44.646Z,39.20
2017-08-27T11:37:15.218Z,40.60
2017-08-27T11:39:46.058Z,41.60
2017-08-27T11:42:19.027Z,42.60
2017-08-27T11:44:50.293Z,41.20
2017-08-27T11:47:20.671Z,40.40
2017-08-27T11:49:53.092Z,40.20
2017-08-27T11:52:24.781Z,40.60
2017-08-27T11:54:56.405Z,43.20
2017-08-27T11:57:26.842Z,43.10
2017-08-27T11:59:57.344Z,41.00
2017-08-27T12:02:27.875Z,41.50
2017-08-27T12:04:58.407Z,40.50
2017-08-27T12:07:29.127Z,38.90
2017-08-27T12:10:00.053Z,39.90
2017-08-27T12:12:30.521Z,39.40
2017-08-27T12:15:05.609Z,37.60
2017-08-27T12:17:37.006Z,37.30
2017-08-27T12:20:09.169Z,37.10
2017-08-27T12:22:40.229Z,39.50
2017-08-27T12:25:11.064Z,40.70
2017-08-27T12:27:42.058Z,40.30
2017-08-27T12:30:13.119Z,42.50
2017-08-27T12:32:43.523Z,41.90
2017-08-27T12:35:14.177Z,40.80
2017-08-27T12:37:45.605Z,41.20
2017-08-27T12:40:22.341Z,43.00
2017-08-27T12:42:52.773Z,40.90
2017-08-27T12:45:23.500Z,40.10
2017-08-27T12:47:54.960Z,39.60
2017-08-27T12:50:25.570Z,36.60
2017-08-27T12:52:57.218Z,37.20
2017-08-27T12:55:27.603Z,37.20
2017-08-27T12:57:57.930Z,35.10
2017-08-27T13:00:29.259Z,36.10
2017-08-27T13:03:00.123Z,36.70
2017-08-27T13:05:30.566Z,34.00
2017-08-27T13:08:01.048Z,33.10
2017-08-27T13:10:31.891Z,34.30
2017-08-27T13:13:02.358Z,38.00
2017-08-27T13:15:32.908Z,37.70
2017-08-27T13:18:03.649Z,36.70
2017-08-27T13:20:34.264Z,37.70
2017-08-27T13:23:04.672Z,37.70
2017-08-27T13:25:35.011Z,36.30
2017-08-27T13:28:05.592Z,35.90
2017-08-27T13:30:36.316Z,35.90
2017-08-27T13:33:06.591Z,37.60
2017-08-27T13:35:37.311Z,37.30
2017-08-27T13:38:07.671Z,37.50
2017-08-27T13:40:38.668Z,37.10
2017-08-27T13:43:09.781Z,36.30
2017-08-27T13:45:40.632Z,36.20
2017-08-27T13:48:11.960Z,35.40
2017-08-27T13:50:42.464Z,35.50
2017-08-27T13:53:13.141Z,33.30
2017-08-27T13:55:43.744Z,34.80
2017-08-27T13:58:14.157Z,37.70
2017-08-27T14:00:45.045Z,36.60
2017-08-27T14:03:16.491Z,34.60
2017-08-27T14:05:47.133Z,34.60
2017-08-27T14:08:17.492Z,36.10
2017-08-27T14:10:47.790Z,35.70
2017-08-27T14:13:19.171Z,37.70
2017-08-27T14:15:49.519Z,37.60
2017-08-27T14:18:19.856Z,37.90
2017-08-27T14:20:50.182Z,39.10
2017-08-27T14:23:20.641Z,40.20
2017-08-27T14:25:51.885Z,38.80
2017-08-27T14:28:23.320Z,38.00
2017-08-27T14:30:53.672Z,38.60
2017-08-27T14:33:24.003Z,36.70
2017-08-27T14:35:54.324Z,37.40
2017-08-27T14:38:25.218Z,37.30
2017-08-27T14:40:56.272Z,38.40
2017-08-27T14:43:27.704Z,38.40
2017-08-27T14:45:57.998Z,36.50
2017-08-27T14:48:28.339Z,36.30
2017-08-27T14:50:58.987Z,37.70
2017-08-27T14:53:29.376Z,37.30
2017-08-27T14:55:59.744Z,36.30
2017-08-27T14:58:30.134Z,35.50
2017-08-27T15:01:00.527Z,34.80
2017-08-27T15:03:30.946Z,36.90
2017-08-27T15:06:01.382Z,36.50
2017-08-27T15:08:32.778Z,36.00
2017-08-27T15:11:05.527Z,35.90
2017-08-27T15:13:36.632Z,35.90
2017-08-27T15:16:07.589Z,36.00
2017-08-27T15:18:37.999Z,36.80
2017-08-27T15:21:08.610Z,35.80
2017-08-27T15:23:39.083Z,36.90
2017-08-27T15:26:09.751Z,36.00
2017-08-27T15:28:40.152Z,35.90
2017-08-27T15:31:11.867Z,38.10
2017-08-27T15:33:43.187Z,38.60
2017-08-27T15:36:13.522Z,38.60
2017-08-27T15:38:44.198Z,38.30
2017-08-27T15:41:14.560Z,39.30
2017-08-27T15:43:44.946Z,39.30
2017-08-27T15:46:15.986Z,39.10
2017-08-27T15:48:46.359Z,38.00
2017-08-27T15:51:16.641Z,38.80
2017-08-27T15:53:47.190Z,37.90
2017-08-27T15:56:18.039Z,38.30
2017-08-27T15:58:48.521Z,38.10
2017-08-27T16:01:18.899Z,39.80
2017-08-27T16:03:49.465Z,38.50
2017-08-27T16:06:19.770Z,38.90
2017-08-27T16:08:50.150Z,39.10
2017-08-27T16:11:21.008Z,39.80
2017-08-27T16:13:51.619Z,38.70
2017-08-27T16:16:22.051Z,38.90
2017-08-27T16:18:52.675Z,38.00
2017-08-27T16:21:24.394Z,38.60
2017-08-27T16:23:55.026Z,39.00
2017-08-27T16:26:25.835Z,39.40
2017-08-27T16:28:56.894Z,39.40
2017-08-27T16:31:27.402Z,39.90
2017-08-27T16:33:58.810Z,40.20
2017-08-27T16:36:29.706Z,40.20
2017-08-27T16:39:00.648Z,39.80
2017-08-27T16:41:31.484Z,39.90
2017-08-27T16:44:02.228Z,40.50
2017-08-27T16:46:33.314Z,41.00
2017-08-27T16:49:03.879Z,42.10
2017-08-27T16:51:35.642Z,42.20
2017-08-27T16:54:06.344Z,42.10
2017-08-27T16:56:37.104Z,42.00
2017-08-27T16:59:08.715Z,43.20
2017-08-27T17:01:39.599Z,43.20
2017-08-27T17:04:11.728Z,44.10
2017-08-27T17:06:42.719Z,44.60
2017-08-27T17:09:14.274Z,45.00
2017-08-27T17:11:45.879Z,45.30
2017-08-27T17:14:17.795Z,45.30
2017-08-27T17:16:48.517Z,45.30
2017-08-27T17:19:21.701Z,45.60
2017-08-27T17:21:52.982Z,45.60
2017-08-27T17:24:24.740Z,46.00
2017-08-27T17:26:55.701Z,46.00
2017-08-27T17:29:26.744Z,46.10
2017-08-27T17:31:57.558Z,46.30
2017-08-27T17:34:27.907Z,46.60
2017-08-27T17:36:58.968Z,46.70
2017-08-27T17:39:29.609Z,46.70
2017-08-27T17:42:00.417Z,47.00
2017-08-27T17:44:30.872Z,46.80
2017-08-27T17:47:02.123Z,46.80
2017-08-27T17:49:32.923Z,46.80
2017-08-27T17:52:03.523Z,47.10
2017-08-27T17:54:34.393Z,47.40
2017-08-27T17:57:05.286Z,47.60
2017-08-27T17:59:37.097Z,47.60
2017-08-27T18:02:08.646Z,47.80
2017-08-27T18:04:39.830Z,48.10
2017-08-27T18:07:10.506Z,48.00
2017-08-27T18:09:40.974Z,47.90
2017-08-27T18:12:13.623Z,48.30
2017-08-27T18:14:44.067Z,48.30
2017-08-27T18:17:14.661Z,48.50
2017-08-27T18:19:45.464Z,48.80
2017-08-27T18:22:16.046Z,48.90
2017-08-27T18:24:46.441Z,49.10
2017-08-27T18:27:17.775Z,49.60
2017-08-27T18:29:48.141Z,49.90
2017-08-27T18:32:18.546Z,50.20
2017-08-27T18:34:49.687Z,50.30
2017-08-27T18:37:20.576Z,50.60
2017-08-27T18:39:51.226Z,51.20
2017-08-27T18:42:22.349Z,51.40
2017-08-27T18:44:52.883Z,51.70
2017-08-27T18:47:24.600Z,52.40
2017-08-27T18:49:55.850Z,52.40
2017-08-27T18:52:26.353Z,52.70
2017-08-27T18:54:57.942Z,53.30
2017-08-27T18:57:28.568Z,53.80
2017-08-27T18:59:59.240Z,53.40
2017-08-27T19:02:30.493Z,53.70
2017-08-27T19:05:01.919Z,54.10
2017-08-27T19:07:33.048Z,54.30
2017-08-27T19:10:03.589Z,54.60
2017-08-27T19:12:34.026Z,55.20
2017-08-27T19:15:04.922Z,55.30
2017-08-27T19:17:35.392Z,55.60
2017-08-27T19:20:15.432Z,56.00
2017-08-27T19:22:55.186Z,56.90
2017-08-27T19:25:33.941Z,56.50
2017-08-27T19:28:14.952Z,56.70
2017-08-27T19:31:00.636Z,57.10
2017-08-27T19:33:40.380Z,56.90
2017-08-27T19:36:22.780Z,58.10
2017-08-27T19:39:02.858Z,57.60
2017-08-27T19:41:40.020Z,57.40
2017-08-27T19:44:20.601Z,57.70
2017-08-27T19:46:56.357Z,58.00
2017-08-27T19:49:35.969Z,57.90
2017-08-27T19:52:14.235Z,59.70
2017-08-27T19:54:52.131Z,59.70
2017-08-27T19:57:24.170Z,59.00
2017-08-27T19:59:54.491Z,59.10
2017-08-27T20:02:26.105Z,59.30
2017-08-27T20:04:58.031Z,59.20
2017-08-27T20:08:15.350Z,59.10
2017-08-27T20:10:45.640Z,59.10
2017-08-27T20:13:16.115Z,59.10
2017-08-27T20:15:46.462Z,59.40
2017-08-27T20:18:16.967Z,59.60
2017-08-27T20:20:47.734Z,59.60
2017-08-27T20:23:18.699Z,60.10
2017-08-27T20:25:49.077Z,59.80
2017-08-27T20:28:19.410Z,60.20
2017-08-27T20:30:50.235Z,60.60
2017-08-27T20:33:21.443Z,61.00
2017-08-27T20:35:51.840Z,61.00
2017-08-27T20:38:23.076Z,61.00
2017-08-27T20:40:54.438Z,60.90
2017-08-27T20:43:24.925Z,60.90
2017-08-27T20:45:55.958Z,61.10
2017-08-27T20:48:26.427Z,60.80
2017-08-27T20:50:56.954Z,61.20
2017-08-27T20:53:27.959Z,61.10
2017-08-27T20:55:58.527Z,61.10
2017-08-27T20:58:28.954Z,61.30
2017-08-27T21:00:59.779Z,62.10
2017-08-27T21:03:30.620Z,62.10
2017-08-27T21:06:01.371Z,62.10
2017-08-27T21:08:32.043Z,62.30
2017-08-27T21:11:02.458Z,63.10
2017-08-27T21:13:33.167Z,63.50
2017-08-27T21:16:04.005Z,64.50
2017-08-27T21:18:35.207Z,64.70
2017-08-27T21:21:12.089Z,64.50
2017-08-27T21:23:44.031Z,64.60
2017-08-27T21:26:21.234Z,64.60
2017-08-27T21:28:53.630Z,65.00
2017-08-27T21:31:24.283Z,65.00
2017-08-27T21:33:55.669Z,65.20
2017-08-27T21:36:26.394Z,65.40
2017-08-27T21:38:58.358Z,65.20
2017-08-27T21:41:28.990Z,65.30
2017-08-27T21:44:00.339Z,65.40
2017-08-27T21:46:30.627Z,65.40
2017-08-27T21:49:00.909Z,65.00
2017-08-27T21:51:31.958Z,65.00
2017-08-27T21:54:03.332Z,64.80
2017-08-27T21:56:35.283Z,64.50
2017-08-27T21:59:05.846Z,64.70
2017-08-27T22:01:36.942Z,64.50
2017-08-27T22:04:07.470Z,64.60
2017-08-27T22:06:38.262Z,64.60
2017-08-27T22:09:09.003Z,64.60
2017-08-27T22:11:39.374Z,64.80
2017-08-27T22:14:09.982Z,65.30
2017-08-27T22:16:40.749Z,65.30
2017-08-27T22:19:11.576Z,66.40
2017-08-27T22:21:42.642Z,66.80
2017-08-27T22:24:13.457Z,66.90
2017-08-27T22:26:44.311Z,67.10
2017-08-27T22:29:14.591Z,68.00
2017-08-27T22:31:47.473Z,68.00
2017-08-27T22:34:17.797Z,68.20
2017-08-27T22:36:48.670Z,68.20
2017-08-27T22:39:19.335Z,67.90
2017-08-27T22:41:50.761Z,67.70
2017-08-27T22:44:21.214Z,67.80
2017-08-27T22:46:52.107Z,68.40
2017-08-27T22:49:22.675Z,68.20
2017-08-27T22:51:53.174Z,68.00
2017-08-27T22:54:23.824Z,68.10
2017-08-27T22:56:54.943Z,68.60
2017-08-27T22:59:26.760Z,69.60
2017-08-27T23:01:57.506Z,69.60
2017-08-27T23:04:28.502Z,69.50
2017-08-27T23:06:59.120Z,69.80
2017-08-27T23:09:29.816Z,69.90
2017-08-27T23:12:01.235Z,70.30
2017-08-27T23:14:31.975Z,70.30
2017-08-27T23:17:02.726Z,70.50
2017-08-27T23:19:33.920Z,70.10
2017-08-27T23:22:04.188Z,70.00
2017-08-27T23:24:34.754Z,69.90
2017-08-27T23:27:05.200Z,70.10
2017-08-27T23:29:35.975Z,70.50
2017-08-27T23:32:06.621Z,70.80
2017-08-27T23:34:37.399Z,70.90
2017-08-27T23:37:08.278Z,70.60
2017-08-27T23:39:39.238Z,70.50
2017-08-27T23:42:10.018Z,70.00
2017-08-27T23:44:40.853Z,70.00
2017-08-27T23:47:11.463Z,70.10
2017-08-27T23:49:42.271Z,70.20
2017-08-27T23:52:12.722Z,70.20
2017-08-27T23:54:43.251Z,71.00
2017-08-27T23:57:14.940Z,71.10
2017-08-27T23:59:45.774Z,71.10
